Time;durP1;ratioP1;P1;durP2;ratioP2;P2;SDS_P1;SDS_P2;PMS_P1;PMS_P2;Temp;Humidity;BMP_temperature;BMP_pressure;BME280_temperature;BME280_humidity;BME280_pressure;Samples;Min_cycle;Max_cycle;Signal;HPM_P1;HPM_P2
2022/02/07 00:01:46;;;;;;;0.35;0.35;;;3.30;99.90;;;;;;5076426;28;20049;-80
2022/02/07 00:04:17;;;;;;;0.50;0.40;;;3.20;99.90;;;;;;5076089;28;20479;-79
2022/02/07 00:06:45;;;;;;;1.35;0.75;;;3.20;99.90;;;;;;5075780;28;20098;-82
2022/02/07 00:09:11;;;;;;;0.75;0.40;;;3.10;99.90;;;;;;5076847;28;20052;-82
2022/02/07 00:11:38;;;;;;;0.43;0.43;;;3.20;99.90;;;;;;5075732;28;20135;-80
2022/02/07 00:14:05;;;;;;;1.08;0.30;;;3.20;99.90;;;;;;5073835;28;20079;-81
2022/02/07 00:16:32;;;;;;;0.30;0.30;;;3.20;99.90;;;;;;5077814;28;20391;-82
2022/02/07 00:18:59;;;;;;;0.82;0.50;;;3.30;99.90;;;;;;5076049;28;20095;-80
2022/02/07 00:21:26;;;;;;;1.92;0.45;;;3.20;99.90;;;;;;5075621;28;20052;-79
2022/02/07 00:23:53;;;;;;;1.30;0.50;;;3.10;99.90;;;;;;5078763;28;20048;-79
2022/02/07 00:26:20;;;;;;;1.08;0.50;;;3.00;99.90;;;;;;5079000;28;20108;-80
2022/02/07 00:28:46;;;;;;;0.60;0.40;;;2.90;99.90;;;;;;5077788;28;20048;-81
2022/02/07 00:31:13;;;;;;;2.25;0.57;;;2.80;99.90;;;;;;5081461;28;20143;-82
2022/02/07 00:33:41;;;;;;;1.38;0.43;;;2.70;99.90;;;;;;5080677;28;20044;-81
2022/02/07 00:36:07;;;;;;;1.10;0.50;;;2.60;99.90;;;;;;5080842;28;20079;-82
2022/02/07 00:38:34;;;;;;;1.85;0.40;;;2.50;99.90;;;;;;5078581;28;20541;-80
2022/02/07 00:41:17;;;;;;;3.85;0.45;;;2.40;99.90;;;;;;5077499;28;20052;-80
2022/02/07 00:43:46;;;;;;;0.50;0.50;;;2.30;99.90;;;;;;5077946;28;20052;-80
2022/02/07 00:46:20;;;;;;;2.70;0.40;;;2.20;99.90;;;;;;5079229;28;20045;-79
2022/02/07 00:48:47;;;;;;;0.70;0.70;;;2.10;99.90;;;;;;5078233;28;20128;-82
2022/02/07 00:51:15;;;;;;;0.73;0.73;;;2.10;99.90;;;;;;5062302;28;20072;-80
2022/02/07 00:53:42;;;;;;;1.02;0.93;;;2.20;99.90;;;;;;5080827;28;20053;-81
2022/02/07 00:56:08;;;;;;;3.72;1.10;;;2.30;99.90;;;;;;5081543;28;20131;-83
2022/02/07 00:58:35;;;;;;;2.33;0.80;;;2.40;99.90;;;;;;5077563;28;20152;-82
2022/02/07 01:01:02;;;;;;;2.40;0.60;;;2.40;99.90;;;;;;5077445;28;20045;-82
2022/02/07 01:03:29;;;;;;;2.75;0.70;;;2.40;99.90;;;;;;5078069;28;20080;-80
2022/02/07 01:05:59;;;;;;;1.60;0.55;;;2.30;99.90;;;;;;5080720;28;20082;-80
2022/02/07 01:08:42;;;;;;;10.48;1.00;;;2.10;99.90;;;;;;5077789;28;20076;-79
2022/02/07 01:14:16;;;;;;;1.13;0.80;;;2.00;99.90;;;;;;5065515;28;20136;-79
2022/02/07 01:22:19;;;;;;;3.40;1.00;;;1.90;99.90;;;;;;5075870;28;20139;-82
2022/02/07 01:46:57;;;;;;;2.60;0.80;;;1.70;99.90;;;;;;5084160;28;20055;-81
2022/02/07 01:56:57;;;;;;;4.88;1.08;;;2.00;99.90;;;;;;5077423;28;20489;-82
2022/02/07 01:59:24;;;;;;;1.05;0.70;;;2.30;99.90;;;;;;5075935;28;20139;-83
2022/02/07 02:01:51;;;;;;;2.50;0.55;;;2.30;99.90;;;;;;5076104;28;20052;-83
2022/02/07 02:04:18;;;;;;;2.83;0.50;;;2.30;99.90;;;;;;5075508;28;20569;-78
2022/02/07 02:06:45;;;;;;;0.90;0.30;;;2.10;99.90;;;;;;5077411;28;20063;-80
2022/02/07 02:09:13;;;;;;;3.05;0.40;;;2.00;99.90;;;;;;5076312;28;20067;-80
2022/02/07 02:11:42;;;;;;;1.65;0.40;;;1.90;99.90;;;;;;5076580;28;20584;-79
2022/02/07 02:14:25;;;;;;;0.70;0.25;;;1.80;99.90;;;;;;5075768;28;20462;-79
2022/02/07 02:38:14;;;;;;;4.60;0.50;;;1.60;99.90;;;;;;5078847;28;20048;-82
2022/02/07 02:46:19;;;;;;;3.65;0.50;;;1.80;99.90;;;;;;5080984;28;20060;-82
2022/02/07 02:48:46;;;;;;;8.13;1.08;;;1.80;99.90;;;;;;5079663;28;20051;-82
2022/02/07 02:51:13;;;;;;;5.78;0.90;;;1.70;99.90;;;;;;5078370;28;20123;-83
2022/02/07 02:53:39;;;;;;;7.38;1.00;;;1.80;99.90;;;;;;5080919;28;20131;-81
2022/02/07 02:56:06;;;;;;;3.45;0.70;;;1.80;99.90;;;;;;5079523;28;20083;-82
2022/02/07 02:58:33;;;;;;;5.82;1.13;;;1.80;99.90;;;;;;5078321;28;20102;-79
2022/02/07 03:01:00;;;;;;;4.05;0.55;;;1.90;99.90;;;;;;5079352;28;20101;-83
2022/02/07 03:03:27;;;;;;;5.22;1.40;;;1.90;99.90;;;;;;5079399;28;20044;-81
2022/02/07 03:05:53;;;;;;;8.43;1.00;;;2.00;99.90;;;;;;5077871;28;20056;-79
2022/02/07 03:08:20;;;;;;;5.45;1.13;;;1.90;99.90;;;;;;5077278;28;20052;-81
2022/02/07 03:10:59;;;;;;;10.55;1.10;;;1.70;99.90;;;;;;5075853;28;20072;-82
2022/02/07 03:18:38;;;;;;;5.53;0.75;;;1.50;99.90;;;;;;5077048;28;20136;-79
2022/02/07 03:21:05;;;;;;;8.27;0.98;;;1.40;99.90;;;;;;5078623;28;20420;-79
2022/02/07 03:23:33;;;;;;;10.18;0.70;;;1.30;99.90;;;;;;5077131;28;20059;-80
2022/02/07 03:25:59;;;;;;;7.38;1.05;;;1.10;99.90;;;;;;5078908;28;20052;-79
2022/02/07 03:28:27;;;;;;;10.82;1.00;;;1.10;99.90;;;;;;5076273;28;20063;-82
2022/02/07 03:30:54;;;;;;;2.90;0.55;;;1.10;99.90;;;;;;5077782;28;20135;-81
2022/02/07 03:33:23;;;;;;;4.88;0.60;;;1.10;99.90;;;;;;5075662;28;20127;-81
2022/02/07 03:35:50;;;;;;;1.73;0.80;;;1.10;99.90;;;;;;5075489;28;20084;-82
2022/02/07 03:38:17;;;;;;;3.67;0.50;;;1.10;99.90;;;;;;5078655;28;20060;-81
2022/02/07 03:40:43;;;;;;;2.92;0.60;;;1.10;99.90;;;;;;5076046;28;20104;-79
2022/02/07 03:43:10;;;;;;;6.57;1.38;;;1.10;99.90;;;;;;5081527;28;20108;-79
2022/02/07 03:45:37;;;;;;;2.90;0.60;;;1.10;99.90;;;;;;5079823;28;20561;-79
2022/02/07 03:48:04;;;;;;;5.10;0.90;;;1.10;99.90;;;;;;5080630;28;20075;-79
2022/02/07 03:50:33;;;;;;;3.05;0.80;;;1.10;99.90;;;;;;5076517;28;20041;-82
2022/02/07 03:53:01;;;;;;;5.45;0.73;;;1.10;99.90;;;;;;5076289;28;20040;-80
2022/02/07 03:55:27;;;;;;;5.72;1.10;;;1.00;99.90;;;;;;5077666;28;20056;-80
2022/02/07 03:57:54;;;;;;;4.50;0.80;;;1.00;99.90;;;;;;5077189;28;20051;-82
2022/02/07 04:00:22;;;;;;;9.73;1.33;;;1.00;99.90;;;;;;5076127;28;20131;-82
2022/02/07 04:02:52;;;;;;;4.18;0.80;;;1.10;99.90;;;;;;5075283;28;20056;-82
2022/02/07 04:05:43;;;;;;;7.85;1.25;;;1.10;99.90;;;;;;5077708;28;20062;-81
2022/02/07 04:08:11;;;;;;;5.95;1.10;;;1.20;99.90;;;;;;5079392;28;20230;-79
2022/02/07 04:10:52;;;;;;;4.97;1.27;;;1.20;99.90;;;;;;5078651;28;20128;-82
2022/02/07 04:13:26;;;;;;;6.63;0.95;;;1.20;99.90;;;;;;5077116;28;20136;-79
2022/02/07 04:15:55;;;;;;;7.03;0.85;;;1.30;99.90;;;;;;5081181;28;20108;-79
2022/02/07 04:18:23;;;;;;;6.50;0.80;;;1.20;99.90;;;;;;5078533;28;20048;-82
2022/02/07 04:20:50;;;;;;;9.70;1.20;;;1.30;99.90;;;;;;5078142;28;20142;-82
2022/02/07 04:23:17;;;;;;;5.88;1.10;;;1.30;99.90;;;;;;5081929;28;20481;-79
2022/02/07 04:25:45;;;;;;;6.97;1.20;;;1.30;99.90;;;;;;5082523;28;20057;-79
2022/02/07 04:28:12;;;;;;;6.03;0.82;;;1.30;99.90;;;;;;5079458;28;20523;-79
2022/02/07 04:30:40;;;;;;;6.50;1.73;;;1.40;99.90;;;;;;5080056;28;20064;-78
2022/02/07 04:33:06;;;;;;;4.38;1.55;;;1.40;99.90;;;;;;5079977;28;20080;-79
2022/02/07 04:35:33;;;;;;;7.10;1.90;;;1.40;99.90;;;;;;5077216;28;20123;-82
2022/02/07 04:38:04;;;;;;;2.83;0.60;;;1.40;99.90;;;;;;5078946;28;20048;-81
2022/02/07 04:40:31;;;;;;;2.80;1.02;;;1.50;99.90;;;;;;5075671;28;20127;-82
2022/02/07 04:42:58;;;;;;;5.05;0.77;;;1.50;99.90;;;;;;5077382;28;20044;-83
2022/02/07 04:45:55;;;;;;;2.60;0.80;;;1.60;99.90;;;;;;5076356;28;20090;-81
2022/02/07 04:54:04;;;;;;;2.03;0.60;;;1.60;99.90;;;;;;5079394;28;20045;-82
2022/02/07 05:15:05;;;;;;;3.70;0.70;;;1.70;99.90;;;;;;5039348;28;20045;-78
2022/02/07 05:17:35;;;;;;;2.70;0.70;;;1.70;99.90;;;;;;5024157;28;20136;-80
2022/02/07 05:20:05;;;;;;;3.90;0.60;;;1.80;99.90;;;;;;5020644;28;20494;-81
2022/02/07 05:22:33;;;;;;;3.40;0.73;;;1.90;99.90;;;;;;5039555;28;20060;-79
2022/02/07 05:25:00;;;;;;;5.60;0.90;;;1.90;99.90;;;;;;5024188;28;20053;-78
2022/02/07 05:27:27;;;;;;;6.60;1.00;;;1.90;99.90;;;;;;5024787;28;20049;-79
2022/02/07 05:29:54;;;;;;;9.15;1.25;;;1.90;99.90;;;;;;5044152;28;20045;-79
2022/02/07 05:32:22;;;;;;;2.15;0.55;;;1.90;99.90;;;;;;5023040;28;20473;-79
2022/02/07 05:34:51;;;;;;;4.90;1.05;;;1.80;99.90;;;;;;5041942;28;20050;-79
2022/02/07 05:37:18;;;;;;;4.10;1.13;;;1.80;99.90;;;;;;5022225;28;20052;-80
2022/02/07 05:39:49;;;;;;;5.38;0.98;;;1.70;99.90;;;;;;5018991;28;20053;-81
2022/02/07 05:42:16;;;;;;;1.92;0.70;;;1.80;99.90;;;;;;5020347;28;20060;-80
2022/02/07 05:44:46;;;;;;;3.50;0.75;;;1.80;99.90;;;;;;5020120;28;20056;-79
2022/02/07 05:47:13;;;;;;;4.57;1.00;;;1.90;99.90;;;;;;5022686;28;20603;-79
2022/02/07 05:49:40;;;;;;;2.40;0.77;;;1.90;99.90;;;;;;5023359;28;20048;-79
2022/02/07 05:52:08;;;;;;;6.47;0.77;;;1.80;99.90;;;;;;5022579;28;20748;-78
2022/02/07 05:54:35;;;;;;;8.85;1.08;;;1.80;99.90;;;;;;5021356;28;20045;-81
2022/02/07 05:57:04;;;;;;;2.75;0.80;;;1.70;99.90;;;;;;5037206;28;20072;-78
2022/02/07 05:59:31;;;;;;;5.28;1.10;;;1.60;99.90;;;;;;5020986;28;20053;-79
2022/02/07 06:01:57;;;;;;;3.03;0.90;;;1.70;99.90;;;;;;5021114;28;20049;-79
2022/02/07 06:04:24;;;;;;;1.88;1.02;;;1.70;99.90;;;;;;5022762;28;20147;-80
2022/02/07 06:06:51;;;;;;;5.40;1.20;;;1.70;99.90;;;;;;5022143;28;20136;-81
2022/02/07 06:09:17;;;;;;;2.55;0.60;;;1.80;99.90;;;;;;5020961;28;20417;-81
2022/02/07 06:11:44;;;;;;;3.92;0.75;;;1.90;99.90;;;;;;5020060;28;20429;-81
2022/02/07 06:14:11;;;;;;;9.48;1.30;;;1.90;99.90;;;;;;5021505;28;20492;-81
2022/02/07 06:16:37;;;;;;;4.22;0.75;;;1.90;99.90;;;;;;5038594;28;20136;-80
2022/02/07 06:19:04;;;;;;;1.65;0.40;;;1.90;99.90;;;;;;5017680;28;20049;-80
2022/02/07 06:21:33;;;;;;;4.68;0.60;;;2.00;99.90;;;;;;5036218;28;20132;-80
2022/02/07 06:24:02;;;;;;;4.30;0.80;;;2.00;99.90;;;;;;5018122;28;20057;-80
2022/02/07 06:26:29;;;;;;;5.40;0.82;;;2.00;99.90;;;;;;5037092;28;20045;-81
2022/02/07 06:28:57;;;;;;;3.60;0.68;;;1.90;99.90;;;;;;5035584;28;20054;-80
2022/02/07 06:31:25;;;;;;;6.72;0.80;;;1.90;99.90;;;;;;5036758;28;20581;-80
2022/02/07 06:33:52;;;;;;;0.80;0.47;;;1.90;99.90;;;;;;5019062;28;20050;-81
2022/02/07 06:36:20;;;;;;;4.60;0.70;;;1.80;99.90;;;;;;5035879;28;20095;-81
2022/02/07 06:38:48;;;;;;;4.88;0.80;;;1.90;99.90;;;;;;5019985;28;20523;-79
2022/02/07 06:41:14;;;;;;;3.05;0.90;;;1.90;99.90;;;;;;5039177;28;20417;-79
2022/02/07 06:43:41;;;;;;;3.33;0.82;;;2.00;99.90;;;;;;5020846;28;20077;-79
2022/02/07 06:46:08;;;;;;;3.13;0.52;;;2.00;99.90;;;;;;5038474;28;20045;-78
2022/02/07 06:48:35;;;;;;;3.30;0.80;;;2.20;99.90;;;;;;5039646;28;20084;-79
2022/02/07 06:51:03;;;;;;;6.57;1.02;;;2.10;99.90;;;;;;5020263;28;20057;-79
2022/02/07 06:53:30;;;;;;;4.35;0.57;;;1.90;99.90;;;;;;5019869;28;20125;-79
2022/02/07 06:55:57;;;;;;;2.78;0.80;;;1.80;99.90;;;;;;5020766;28;20045;-79
2022/02/07 06:58:25;;;;;;;5.13;0.90;;;1.80;99.90;;;;;;5019876;28;20052;-79
2022/02/07 07:00:52;;;;;;;9.95;1.95;;;1.70;99.90;;;;;;5019221;28;20407;-78
2022/02/07 07:03:24;;;;;;;5.30;1.30;;;1.60;99.90;;;;;;5035574;28;20054;-79
2022/02/07 07:05:53;;;;;;;2.55;0.68;;;1.70;99.90;;;;;;5037224;28;20099;-79
2022/02/07 07:08:21;;;;;;;7.57;1.52;;;1.60;99.90;;;;;;5017252;28;20056;-80
2022/02/07 07:10:48;;;;;;;3.25;0.77;;;1.70;99.90;;;;;;5017584;28;20550;-78
2022/02/07 07:13:22;;;;;;;7.07;1.45;;;1.80;99.90;;;;;;5036654;28;20055;-78
2022/02/07 07:15:53;;;;;;;;;;;1.90;99.90;;;;;;5037743;28;20387;-78
2022/02/07 07:18:20;;;;;;;3.58;0.63;;;2.00;99.90;;;;;;5036017;28;19996;-80
2022/02/07 07:20:48;;;;;;;5.07;1.10;;;1.90;99.90;;;;;;5036195;28;20053;-81
2022/02/07 07:23:15;;;;;;;8.40;1.00;;;2.10;99.90;;;;;;5037550;28;20064;-79
2022/02/07 07:25:44;;;;;;;7.97;1.05;;;2.20;99.90;;;;;;5018852;28;20136;-79
2022/02/07 07:28:14;;;;;;;3.80;1.38;;;2.30;99.90;;;;;;5018474;28;20049;-79
2022/02/07 07:30:46;;;;;;;7.05;1.05;;;2.30;99.90;;;;;;5016086;28;20133;-81
2022/02/07 07:33:18;;;;;;;7.95;1.00;;;2.30;99.90;;;;;;5034212;28;20055;-81
2022/02/07 07:35:45;;;;;;;4.50;0.73;;;2.30;99.90;;;;;;5043061;28;20045;-80
2022/02/07 07:38:11;;;;;;;4.18;0.90;;;2.40;99.90;;;;;;5026505;28;20117;-80
2022/02/07 07:40:39;;;;;;;5.35;1.00;;;2.40;99.90;;;;;;5056331;28;20135;-79
2022/02/07 07:43:08;;;;;;;5.43;0.90;;;2.50;99.90;;;;;;5022557;28;20133;-79
2022/02/07 07:45:46;;;;;;;4.75;1.02;;;2.50;99.90;;;;;;5018128;28;20525;-79
2022/02/07 07:48:18;;;;;;;7.18;1.08;;;2.60;99.90;;;;;;5017583;28;20055;-79
2022/02/07 07:53:25;;;;;;;4.95;1.05;;;2.60;99.90;;;;;;5034960;28;20437;-79
2022/02/07 08:03:55;;;;;;;4.63;0.90;;;2.60;99.90;;;;;;5042100;28;20147;-80
2022/02/07 08:06:26;;;;;;;4.70;0.85;;;2.60;99.90;;;;;;5052406;28;20124;-80
2022/02/07 08:11:33;;;;;;;6.20;1.35;;;2.80;99.90;;;;;;5053667;28;20076;-80
2022/02/07 08:14:01;;;;;;;4.85;1.55;;;3.00;99.90;;;;;;5036775;28;20067;-80
2022/02/07 08:16:28;;;;;;;5.32;1.20;;;3.10;99.90;;;;;;5053405;28;20087;-80
2022/02/07 08:19:01;;;;;;;3.90;0.88;;;3.20;99.90;;;;;;5035397;28;20474;-80
2022/02/07 08:21:28;;;;;;;12.43;1.63;;;3.20;99.90;;;;;;5035533;28;20497;-80
2022/02/07 08:23:54;;;;;;;1.95;0.73;;;3.30;99.90;;;;;;5053408;28;20045;-80
2022/02/07 08:26:21;;;;;;;6.47;0.85;;;3.30;99.90;;;;;;5054298;28;20060;-80
2022/02/07 08:28:50;;;;;;;2.72;0.90;;;3.30;99.90;;;;;;5035730;28;20072;-80
2022/02/07 08:31:17;;;;;;;3.83;1.08;;;3.30;99.90;;;;;;5035853;28;20041;-80
2022/02/07 08:33:46;;;;;;;4.75;1.40;;;3.20;99.90;;;;;;5036203;28;20132;-80
2022/02/07 08:36:16;;;;;;;5.07;1.02;;;3.30;99.90;;;;;;5035411;28;20160;-79
2022/02/07 08:38:43;;;;;;;6.10;1.00;;;3.30;99.90;;;;;;5052865;28;20045;-80
2022/02/07 08:41:09;;;;;;;7.00;1.08;;;3.50;99.90;;;;;;5053710;28;20534;-80
2022/02/07 08:43:36;;;;;;;3.38;0.90;;;3.80;99.90;;;;;;5058649;28;20056;-80
2022/02/07 08:46:03;;;;;;;4.38;0.73;;;4.00;99.90;;;;;;5054806;28;20099;-79
2022/02/07 08:48:30;;;;;;;9.23;1.00;;;4.00;99.90;;;;;;5056399;28;20140;-80
2022/02/07 08:50:57;;;;;;;3.13;0.80;;;3.80;99.90;;;;;;5057816;28;20458;-80
2022/02/07 08:53:27;;;;;;;5.88;1.00;;;3.70;99.90;;;;;;5057567;28;20472;-79
2022/02/07 08:55:55;;;;;;;4.97;0.80;;;3.60;99.90;;;;;;5057357;28;20099;-79
2022/02/07 08:58:29;;;;;;;3.90;0.70;;;3.50;99.90;;;;;;5040356;28;20049;-80
2022/02/07 09:01:22;;;;;;;4.03;0.80;;;3.50;99.90;;;;;;5039165;28;20512;-80
2022/02/07 09:09:25;;;;;;;4.35;1.08;;;3.70;99.90;;;;;;5056303;28;20084;-79
2022/02/07 09:11:26;;;;;;;4.75;0.88;;;3.90;99.90;;;;;;5034015;28;20052;-80
2022/02/07 09:13:55;;;;;;;1.73;0.63;;;4.10;99.90;;;;;;5056529;28;20081;-79
2022/02/07 09:16:30;;;;;;;8.82;1.23;;;4.40;99.90;;;;;;5056425;28;20420;-80
2022/02/07 09:19:00;;;;;;;2.97;0.70;;;4.50;99.90;;;;;;5056906;28;20055;-79
2022/02/07 09:21:28;;;;;;;6.45;1.00;;;4.40;99.90;;;;;;5056742;28;20132;-80
2022/02/07 09:23:57;;;;;;;4.85;0.82;;;4.40;99.90;;;;;;5039196;28;20490;-80
2022/02/07 09:26:24;;;;;;;3.95;0.90;;;4.30;99.90;;;;;;5057010;28;20049;-80
2022/02/07 09:28:52;;;;;;;3.95;0.93;;;4.20;99.90;;;;;;5039123;28;20502;-80
2022/02/07 09:31:21;;;;;;;4.03;0.57;;;4.10;99.90;;;;;;5015167;28;20606;-80
2022/02/07 09:33:49;;;;;;;3.00;0.90;;;3.90;99.90;;;;;;5052301;28;20049;-80
2022/02/07 09:36:16;;;;;;;3.17;0.77;;;3.80;99.90;;;;;;5039190;28;20131;-80
2022/02/07 09:38:44;;;;;;;5.72;1.00;;;3.70;99.90;;;;;;5056157;28;20123;-79
2022/02/07 09:41:12;;;;;;;2.13;0.45;;;3.80;99.90;;;;;;5057088;28;20060;-80
2022/02/07 09:43:45;;;;;;;4.25;0.77;;;3.80;99.90;;;;;;5034269;28;20131;-80
2022/02/07 09:46:21;;;;;;;4.88;0.90;;;3.90;99.90;;;;;;5024227;28;20049;-80
2022/02/07 09:48:53;;;;;;;2.22;0.70;;;4.30;99.90;;;;;;5050904;28;20059;-79
2022/02/07 09:51:20;;;;;;;2.05;0.40;;;4.50;99.90;;;;;;5018481;28;20132;-80
2022/02/07 09:53:47;;;;;;;4.05;0.73;;;4.60;99.90;;;;;;5035321;28;20053;-80
2022/02/07 09:56:14;;;;;;;1.70;0.50;;;4.70;99.90;;;;;;5018063;28;20574;-80
2022/02/07 09:58:40;;;;;;;3.05;0.50;;;4.70;99.90;;;;;;5034874;28;20049;-79
2022/02/07 10:01:13;;;;;;;2.38;0.40;;;4.90;99.90;;;;;;5035705;28;20053;-80
2022/02/07 10:03:50;;;;;;;2.08;0.63;;;5.00;99.90;;;;;;5019460;28;20050;-80
2022/02/07 10:12:00;;;;;;;7.05;1.02;;;4.70;99.90;;;;;;5038800;28;20118;-80
2022/02/07 10:14:43;;;;;;;4.13;0.60;;;4.60;99.90;;;;;;5011411;28;20476;-81
2022/02/07 10:19:56;;;;;;;5.63;1.08;;;4.60;99.90;;;;;;5037249;28;20476;-80
2022/02/07 10:45:51;;;;;;;4.22;0.65;;;5.20;99.90;;;;;;5044372;28;20143;-80
2022/02/07 10:48:48;;;;;;;4.18;0.77;;;5.20;99.90;;;;;;5051102;28;20049;-81
2022/02/07 10:51:31;;;;;;;4.00;1.35;;;5.20;99.90;;;;;;5040389;28;20136;-81
2022/02/07 10:54:02;;;;;;;4.13;1.42;;;5.60;99.90;;;;;;5028845;28;20037;-79
2022/02/07 10:56:40;;;;;;;4.22;0.93;;;5.60;99.90;;;;;;5044773;28;20037;-80
2022/02/07 10:59:10;;;;;;;3.53;1.17;;;5.50;99.90;;;;;;5028723;28;20124;-82
2022/02/07 11:04:23;;;;;;;5.28;1.35;;;5.60;99.90;;;;;;5044041;28;20085;-79
2022/02/07 11:06:56;;;;;;;7.32;1.35;;;5.60;99.90;;;;;;5025225;28;20068;-82
2022/02/07 11:12:12;;;;;;;12.05;1.80;;;5.90;99.90;;;;;;5052791;28;20041;-81
2022/02/07 11:14:50;;;;;;;12.43;1.67;;;6.40;99.90;;;;;;5055376;28;20136;-81
2022/02/07 11:17:57;;;;;;;4.20;1.40;;;6.50;99.90;;;;;;5055679;28;20073;-81
2022/02/07 11:20:27;;;;;;;5.88;1.00;;;6.40;99.90;;;;;;5054410;28;20147;-81
2022/02/07 11:23:20;;;;;;;7.30;1.17;;;7.00;99.90;;;;;;5037049;28;20053;-81
2022/02/07 11:25:57;;;;;;;10.23;1.93;;;6.80;99.90;;;;;;5037709;28;20140;-81
2022/02/07 11:28:29;;;;;;;10.80;2.08;;;6.70;99.90;;;;;;5032490;28;20077;-81
2022/02/07 11:31:04;;;;;;;12.98;2.08;;;6.60;99.90;;;;;;5039878;28;20040;-81
2022/02/07 11:33:58;;;;;;;8.32;1.60;;;6.40;99.90;;;;;;5056877;28;20049;-81
2022/02/07 11:36:34;;;;;;;12.75;1.70;;;6.30;99.90;;;;;;5058423;28;20108;-80
2022/02/07 11:39:04;;;;;;;12.02;1.88;;;6.00;99.90;;;;;;5057334;28;20048;-81
2022/02/07 11:42:00;;;;;;;6.75;1.00;;;5.90;99.90;;;;;;5038644;28;20106;-81
2022/02/07 11:44:49;;;;;;;8.05;1.30;;;6.00;99.90;;;;;;5049819;28;20095;-81
2022/02/07 11:47:17;;;;;;;6.25;1.60;;;7.10;99.90;;;;;;5056190;28;20128;-81
2022/02/07 11:49:49;;;;;;;7.53;1.77;;;8.40;99.90;;;;;;5055786;28;20049;-81
2022/02/07 11:52:32;;;;;;;7.20;1.98;;;9.50;99.90;;;;;;5054331;28;20049;-81
2022/02/07 11:55:15;;;;;;;9.93;1.90;;;10.30;95.20;;;;;;5054514;28;20052;-81
2022/02/07 11:58:11;;;;;;;3.88;1.63;;;10.50;97.30;;;;;;5037526;28;20051;-81
2022/02/07 12:00:45;;;;;;;6.63;2.00;;;11.10;93.10;;;;;;5050197;28;20112;-81
2022/02/07 12:03:15;;;;;;;8.15;1.85;;;11.60;92.70;;;;;;5035359;28;20571;-80
2022/02/07 12:05:47;;;;;;;10.10;2.15;;;12.60;87.80;;;;;;5034694;28;20057;-81
2022/02/07 12:08:25;;;;;;;5.57;1.53;;;12.50;82.60;;;;;;5053817;28;20063;-81
2022/02/07 12:11:10;;;;;;;8.88;1.90;;;11.70;83.40;;;;;;5052914;28;20044;-79
2022/02/07 12:13:39;;;;;;;6.60;1.50;;;10.60;85.50;;;;;;5052814;28;20132;-80
2022/02/07 12:16:18;;;;;;;8.15;1.85;;;9.60;89.30;;;;;;5035073;28;20577;-81
2022/02/07 12:18:47;;;;;;;12.98;2.00;;;8.80;92.90;;;;;;5061688;28;20075;-81
2022/02/07 12:21:24;;;;;;;10.77;1.70;;;8.70;93.60;;;;;;5041743;28;20140;-81
2022/02/07 12:23:59;;;;;;;9.85;1.58;;;8.20;94.90;;;;;;5058788;28;20103;-81
2022/02/07 12:26:27;;;;;;;8.27;2.22;;;7.50;97.10;;;;;;5033624;28;20136;-82
2022/02/07 12:29:00;;;;;;;9.60;1.60;;;7.20;99.90;;;;;;5057651;28;20071;-81
2022/02/07 12:31:29;;;;;;;9.90;1.33;;;6.90;99.90;;;;;;5040573;28;20557;-81
2022/02/07 12:34:10;;;;;;;9.02;1.55;;;6.80;99.90;;;;;;5058206;28;20132;-81
2022/02/07 12:36:37;;;;;;;9.77;1.60;;;6.70;99.90;;;;;;5039769;28;20059;-80
2022/02/07 12:39:15;;;;;;;10.70;1.60;;;6.50;99.90;;;;;;5040659;28;20049;-82
2022/02/07 12:41:43;;;;;;;10.55;1.90;;;6.40;99.90;;;;;;5039783;28;20079;-81
2022/02/07 12:44:17;;;;;;;12.73;2.45;;;6.30;99.90;;;;;;5039084;28;20418;-81
2022/02/07 12:46:46;;;;;;;9.25;1.85;;;6.40;99.90;;;;;;5039325;28;20053;-80
2022/02/07 12:49:21;;;;;;;12.55;2.20;;;6.60;99.90;;;;;;5056716;28;20053;-83
2022/02/07 12:51:48;;;;;;;10.55;1.92;;;7.00;99.90;;;;;;5055988;28;20132;-81
2022/02/07 12:54:18;;;;;;;11.57;2.20;;;7.10;99.90;;;;;;5038583;28;20075;-81
2022/02/07 12:56:45;;;;;;;16.48;2.35;;;7.50;99.90;;;;;;5038070;28;20147;-82
2022/02/07 12:59:12;;;;;;;10.68;2.53;;;7.80;99.90;;;;;;5055787;28;20136;-81
2022/02/07 13:01:42;;;;;;;9.35;1.73;;;8.10;98.90;;;;;;5037315;28;20128;-81
2022/02/07 13:04:20;;;;;;;6.93;1.70;;;8.70;96.80;;;;;;5038994;28;20433;-80
2022/02/07 13:06:55;;;;;;;7.30;2.00;;;9.20;92.30;;;;;;5055158;28;20422;-80
2022/02/07 13:09:29;;;;;;;10.55;2.00;;;9.00;91.30;;;;;;5047556;28;20056;-81
2022/02/07 13:12:12;;;;;;;16.58;2.80;;;9.10;92.70;;;;;;5054518;28;20045;-81
2022/02/07 13:14:42;;;;;;;8.85;2.20;;;8.70;92.30;;;;;;5037150;28;20476;-80
2022/02/07 13:17:10;;;;;;;12.07;2.00;;;8.50;93.10;;;;;;5055252;28;20049;-80
2022/02/07 13:19:42;;;;;;;9.90;1.80;;;8.30;93.80;;;;;;5054772;28;20102;-81
2022/02/07 13:22:09;;;;;;;11.57;1.95;;;7.90;94.80;;;;;;5040461;28;20131;-81
2022/02/07 13:24:38;;;;;;;16.15;2.42;;;7.60;95.60;;;;;;5040290;28;20137;-80
2022/02/07 13:27:08;;;;;;;10.00;2.08;;;7.30;95.60;;;;;;5057741;28;20087;-82
2022/02/07 13:29:42;;;;;;;11.48;1.75;;;7.00;96.30;;;;;;5040360;28;20049;-81
2022/02/07 13:32:09;;;;;;;12.45;3.10;;;7.10;98.50;;;;;;5041701;28;20099;-81
2022/02/07 13:34:37;;;;;;;9.48;1.77;;;7.10;99.90;;;;;;5059213;28;20045;-81
2022/02/07 13:37:16;;;;;;;9.50;1.67;;;7.30;98.40;;;;;;5041562;28;20056;-82
2022/02/07 13:40:00;;;;;;;9.50;1.73;;;7.70;96.20;;;;;;5040810;28;20060;-81
2022/02/07 13:42:37;;;;;;;9.20;1.85;;;7.90;95.80;;;;;;5033511;28;20052;-81
2022/02/07 13:45:10;;;;;;;12.13;1.65;;;8.50;96.10;;;;;;5058452;28;20437;-81
2022/02/07 13:47:40;;;;;;;9.20;1.98;;;8.80;94.30;;;;;;5057774;28;20068;-81
2022/02/07 13:50:16;;;;;;;16.17;2.40;;;8.90;93.30;;;;;;5039514;28;20084;-81
2022/02/07 13:52:45;;;;;;;11.18;2.25;;;9.20;93.80;;;;;;5039740;28;20055;-81
2022/02/07 13:55:45;;;;;;;11.70;1.92;;;9.60;93.00;;;;;;5039706;28;20049;-81
2022/02/07 13:58:13;;;;;;;10.25;1.95;;;10.00;91.10;;;;;;5057038;28;20497;-81
2022/02/07 14:00:49;;;;;;;9.65;2.10;;;10.50;87.40;;;;;;5038735;28;20144;-81
2022/02/07 14:03:27;;;;;;;14.98;2.83;;;10.80;86.00;;;;;;5057413;28;20045;-81
2022/02/07 14:05:57;;;;;;;8.77;1.75;;;10.90;83.00;;;;;;5040309;28;20140;-81
2022/02/07 14:08:37;;;;;;;12.38;2.13;;;10.50;79.60;;;;;;5057359;28;20125;-80
2022/02/07 14:11:07;;;;;;;10.57;1.88;;;10.10;82.10;;;;;;5057799;28;20041;-81
2022/02/07 14:13:38;;;;;;;6.68;1.55;;;9.90;80.50;;;;;;5040227;28;20083;-81
2022/02/07 14:16:07;;;;;;;11.65;2.20;;;9.60;81.50;;;;;;5056730;28;20458;-82
2022/02/07 14:18:37;;;;;;;15.32;1.85;;;9.40;83.80;;;;;;5039061;28;20474;-82
2022/02/07 14:21:09;;;;;;;10.35;2.22;;;8.90;83.10;;;;;;5057215;28;20095;-81
2022/02/07 14:23:37;;;;;;;13.60;1.92;;;8.20;86.10;;;;;;5038342;28;20266;-81
2022/02/07 14:26:32;;;;;;;8.50;1.90;;;7.90;89.20;;;;;;5056186;28;20056;-81
2022/02/07 14:36:39;;;;;;;12.02;2.20;;;8.00;92.00;;;;;;5043395;22;20136;-82
2022/02/07 14:39:07;;;;;;;8.60;1.63;;;8.90;92.20;;;;;;5018634;28;20123;-82
2022/02/07 14:41:34;;;;;;;9.40;2.00;;;9.00;87.40;;;;;;5017838;28;20092;-81
2022/02/07 14:44:01;;;;;;;13.48;2.00;;;8.80;87.90;;;;;;5016031;28;20051;-81
2022/02/07 14:46:42;;;;;;;11.90;2.72;;;8.60;89.30;;;;;;5017868;28;20368;-82
2022/02/07 14:49:08;;;;;;;17.08;2.53;;;8.50;89.30;;;;;;5034849;28;20128;-82
2022/02/07 14:51:35;;;;;;;11.45;2.20;;;8.50;89.30;;;;;;5016258;28;20425;-81
2022/02/07 14:54:03;;;;;;;14.35;2.33;;;8.20;89.20;;;;;;5017399;28;20056;-81
2022/02/07 14:56:29;;;;;;;14.02;2.65;;;8.10;90.50;;;;;;5018528;28;20132;-81
2022/02/07 14:58:57;;;;;;;16.77;2.22;;;8.10;90.70;;;;;;5036988;28;20081;-81
2022/02/07 15:01:23;;;;;;;8.82;1.88;;;8.00;91.30;;;;;;5019077;28;20061;-81
2022/02/07 15:03:50;;;;;;;12.80;2.50;;;7.80;91.10;;;;;;5018590;28;20052;-81
2022/02/07 15:06:17;;;;;;;10.25;1.63;;;7.40;91.70;;;;;;5036314;28;20080;-81
2022/02/07 15:08:45;;;;;;;12.07;2.20;;;7.10;92.30;;;;;;5035651;28;20103;-81
2022/02/07 15:11:16;;;;;;;15.18;2.50;;;6.80;93.10;;;;;;5017262;28;20358;-81
2022/02/07 15:13:43;;;;;;;14.05;2.30;;;6.60;94.00;;;;;;5035341;28;20049;-81
2022/02/07 15:16:09;;;;;;;13.60;2.28;;;6.40;94.70;;;;;;5035647;28;20069;-81
2022/02/07 15:18:41;;;;;;;16.95;1.90;;;6.20;95.80;;;;;;5018087;28;20483;-81
2022/02/07 15:21:08;;;;;;;14.23;2.40;;;6.00;97.30;;;;;;5017373;28;20136;-82
2022/02/07 15:23:37;;;;;;;11.13;1.92;;;5.90;97.80;;;;;;5018158;28;20053;-81
2022/02/07 15:26:05;;;;;;;15.15;2.42;;;5.90;99.10;;;;;;5036268;28;20056;-81
2022/02/07 15:28:32;;;;;;;9.90;2.00;;;5.90;98.70;;;;;;5018334;28;20052;-81
2022/02/07 15:31:00;;;;;;;11.13;2.80;;;6.00;98.30;;;;;;5036309;28;20053;-81
2022/02/07 15:33:34;;;;;;;12.48;2.15;;;6.10;98.80;;;;;;5036024;28;20109;-81
2022/02/07 15:36:02;;;;;;;13.48;2.35;;;6.10;98.10;;;;;;5017384;28;20053;-81
2022/02/07 15:38:29;;;;;;;10.20;1.75;;;6.10;99.30;;;;;;5017537;28;20042;-81
2022/02/07 15:40:57;;;;;;;12.00;2.22;;;6.10;99.50;;;;;;5017806;28;20124;-81
2022/02/07 15:43:23;;;;;;;13.25;1.80;;;6.10;99.90;;;;;;5035574;28;20509;-81
2022/02/07 15:45:50;;;;;;;13.15;2.40;;;5.90;99.90;;;;;;5035173;28;20045;-81
2022/02/07 15:48:23;;;;;;;13.73;2.63;;;5.80;99.90;;;;;;5034978;28;20045;-80
2022/02/07 15:50:51;;;;;;;8.52;2.10;;;5.70;99.90;;;;;;5032656;28;20052;-81